Corbera de Llobregat, Spain
Current Conditions -  °F | °C
As of 12:00 PM on Sunday 21 Dec 2014 (Local Time) from LELL Reporting Station
Few Clouds Few Clouds  
Wind Chill: 54°   Ceiling: Unl
Heat Index: 54°   Visibility: 6mi
Dew Point: 43°   Wind: 2mph
Humidity: 67%   Direction: NA
Pressure: 30.48"   Gusts: NA
Location:  41.42°N, 1.92°E
Report Text: LELL 211100Z VRB02KT 9999 FEW015 12/06 Q1032
Loading
Personal Weather Stations






























Interactive Weather Map New forecast layout! Learn more

10-Day Weather Forecast

Advertisements
Track Severe Weather on mobile